ARG1590 SABE-SAOC
Flight info
| Callsign | ARG1590 |
|---|---|
| Flight time | 1h 3m |
| Altitude | 32000 |
| Route | PAL9 NEPIS DCT NIN UT684 RAXUR |
| Aircraft | B38M/M-SDE1FGHILORVWXY/HB1 |
Departure
| Time | 2026-05-04 19:57 |
|---|---|
| Airport | Aeroparque Jorge Newbery (SABE) |
Arrival
| Time | 2026-05-04 21:00 |
|---|---|
| Airport | Area De Material Airport (SAOC) |
| Time | Latitude | Longitude | Altitude | Speed | Heading |
|---|---|---|---|---|---|
| 2026-05-04 19:12 | -34.55924 | -58.41206 | 26 ft | 0 kts | 265° |
| 2026-05-04 19:47 | -34.55923 | -58.41195 | 26 ft | 3 kts | 263° |
| 2026-05-04 19:47 | -34.55921 | -58.41171 | 26 ft | 3 kts | 266° |
| 2026-05-04 19:48 | -34.55922 | -58.41151 | 26 ft | 2 kts | 292° |
| 2026-05-04 19:48 | -34.55927 | -58.41139 | 26 ft | 1 kts | 307° |
| 2026-05-04 19:48 | -34.55932 | -58.41131 | 26 ft | 1 kts | 310° |
| 2026-05-04 19:48 | -34.55933 | -58.41130 | 26 ft | 0 kts | 310° |
| 2026-05-04 19:52 | -34.55919 | -58.41149 | 26 ft | 8 kts | 310° |
| 2026-05-04 19:52 | -34.55868 | -58.41224 | 26 ft | 14 kts | 307° |
| 2026-05-04 19:53 | -34.55886 | -58.41297 | 26 ft | 10 kts | 218° |
| 2026-05-04 19:53 | -34.55939 | -58.41275 | 26 ft | 10 kts | 127° |
| 2026-05-04 19:53 | -34.55988 | -58.41199 | 26 ft | 13 kts | 127° |
| 2026-05-04 19:53 | -34.56047 | -58.41105 | 26 ft | 15 kts | 127° |
| 2026-05-04 19:54 | -34.56114 | -58.40998 | 26 ft | 17 kts | 127° |
| 2026-05-04 19:54 | -34.56171 | -58.40871 | 26 ft | 17 kts | 97° |
| 2026-05-04 19:54 | -34.56219 | -58.40745 | 26 ft | 17 kts | 124° |
| 2026-05-04 19:54 | -34.56288 | -58.40620 | 26 ft | 19 kts | 124° |
| 2026-05-04 19:55 | -34.56378 | -58.40508 | 26 ft | 19 kts | 137° |
| 2026-05-04 19:55 | -34.56478 | -58.40400 | 26 ft | 19 kts | 139° |
| 2026-05-04 19:55 | -34.56559 | -58.40400 | 26 ft | 10 kts | 205° |
| 2026-05-04 19:55 | -34.56573 | -58.40425 | 26 ft | 1 kts | 282° |
| 2026-05-04 19:56 | -34.56551 | -58.40456 | 26 ft | 10 kts | 308° |
| 2026-05-04 19:56 | -34.56523 | -58.40507 | 26 ft | 0 kts | 303° |
| 2026-05-04 19:56 | -34.56517 | -58.40517 | 26 ft | 6 kts | 304° |
| 2026-05-04 19:56 | -34.56335 | -58.40842 | 27 ft | 92 kts | 304° |
| 2026-05-04 19:57 | -34.55836 | -58.41733 | 75 ft | 156 kts | 307° |
| 2026-05-04 19:57 | -34.55152 | -58.42956 | 471 ft | 200 kts | 304° |
| 2026-05-04 19:57 | -34.54280 | -58.44642 | 861 ft | 270 kts | 305° |
| 2026-05-04 19:57 | -34.52813 | -58.46231 | 1289 ft | 287 kts | 334° |
| 2026-05-04 19:58 | -34.50804 | -58.46740 | 1828 ft | 304 kts | 2° |
| 2026-05-04 19:58 | -34.48815 | -58.45954 | 2360 ft | 308 kts | 26° |
| 2026-05-04 19:58 | -34.46959 | -58.44604 | 2883 ft | 313 kts | 31° |
| 2026-05-04 19:58 | -34.45136 | -58.43118 | 3398 ft | 318 kts | 31° |
| 2026-05-04 19:59 | -34.43293 | -58.41683 | 3890 ft | 319 kts | 28° |
| 2026-05-04 19:59 | -34.41399 | -58.40240 | 4395 ft | 324 kts | 33° |
| 2026-05-04 19:59 | -34.39848 | -58.38156 | 4907 ft | 337 kts | 56° |
| 2026-05-04 19:59 | -34.39049 | -58.35521 | 5392 ft | 344 kts | 78° |
| 2026-05-04 20:00 | -34.39133 | -58.32602 | 5894 ft | 352 kts | 102° |
| 2026-05-04 20:00 | -34.40161 | -58.29913 | 6391 ft | 357 kts | 127° |
| 2026-05-04 20:00 | -34.42036 | -58.27996 | 6887 ft | 355 kts | 155° |
| 2026-05-04 20:00 | -34.44395 | -58.27268 | 7376 ft | 349 kts | 182° |
| 2026-05-04 20:01 | -34.46729 | -58.27826 | 7889 ft | 342 kts | 207° |
| 2026-05-04 20:01 | -34.48618 | -58.29495 | 8397 ft | 337 kts | 231° |
| 2026-05-04 20:01 | -34.49846 | -58.31899 | 8929 ft | 337 kts | 245° |
| 2026-05-04 20:01 | -34.50847 | -58.34475 | 9452 ft | 339 kts | 248° |
| 2026-05-04 20:02 | -34.51807 | -58.37109 | 9970 ft | 342 kts | 247° |
| 2026-05-04 20:02 | -34.52810 | -58.39734 | 10433 ft | 342 kts | 246° |
| 2026-05-04 20:02 | -34.53823 | -58.42301 | 10911 ft | 342 kts | 246° |
| 2026-05-04 20:02 | -34.54849 | -58.44935 | 11396 ft | 341 kts | 246° |
| 2026-05-04 20:03 | -34.55835 | -58.47513 | 11881 ft | 340 kts | 246° |
| 2026-05-04 20:03 | -34.56831 | -58.50112 | 12383 ft | 340 kts | 246° |
| 2026-05-04 20:03 | -34.57845 | -58.52738 | 12861 ft | 340 kts | 246° |
| 2026-05-04 20:03 | -34.58834 | -58.55304 | 13377 ft | 339 kts | 245° |
| 2026-05-04 20:04 | -34.59830 | -58.57896 | 13862 ft | 339 kts | 245° |
| 2026-05-04 20:04 | -34.60706 | -58.60544 | 14335 ft | 339 kts | 255° |
| 2026-05-04 20:04 | -34.61063 | -58.63382 | 14807 ft | 341 kts | 266° |
| 2026-05-04 20:04 | -34.60991 | -58.66266 | 15287 ft | 344 kts | 270° |
| 2026-05-04 20:05 | -34.60875 | -58.69175 | 15773 ft | 344 kts | 270° |
| 2026-05-04 20:05 | -34.60762 | -58.72083 | 16260 ft | 346 kts | 270° |
| 2026-05-04 20:05 | -34.60653 | -58.75010 | 16769 ft | 347 kts | 270° |
| 2026-05-04 20:05 | -34.60542 | -58.77940 | 17303 ft | 348 kts | 270° |
| 2026-05-04 20:06 | -34.60428 | -58.80892 | 17822 ft | 350 kts | 270° |
| 2026-05-04 20:06 | -34.60313 | -58.83855 | 18324 ft | 352 kts | 270° |
| 2026-05-04 20:06 | -34.60196 | -58.86833 | 18781 ft | 353 kts | 270° |
| 2026-05-04 20:06 | -34.60080 | -58.89819 | 19233 ft | 355 kts | 270° |
| 2026-05-04 20:07 | -34.59961 | -58.92819 | 19705 ft | 358 kts | 270° |
| 2026-05-04 20:07 | -34.59841 | -58.95848 | 20183 ft | 359 kts | 270° |
| 2026-05-04 20:07 | -34.59719 | -58.98883 | 20663 ft | 362 kts | 270° |
| 2026-05-04 20:07 | -34.59596 | -59.01939 | 21155 ft | 364 kts | 270° |
| 2026-05-04 20:08 | -34.59473 | -59.04981 | 21648 ft | 366 kts | 270° |
| 2026-05-04 20:08 | -34.59347 | -59.08066 | 22152 ft | 367 kts | 270° |
| 2026-05-04 20:08 | -34.59220 | -59.11176 | 22670 ft | 369 kts | 270° |
| 2026-05-04 20:08 | -34.59091 | -59.14304 | 23188 ft | 372 kts | 270° |
| 2026-05-04 20:09 | -34.58960 | -59.17453 | 23691 ft | 374 kts | 270° |
| 2026-05-04 20:09 | -34.58828 | -59.20609 | 24122 ft | 376 kts | 270° |
| 2026-05-04 20:09 | -34.58694 | -59.23792 | 24590 ft | 378 kts | 270° |
| 2026-05-04 20:09 | -34.58560 | -59.26980 | 25051 ft | 380 kts | 270° |
| 2026-05-04 20:10 | -34.58423 | -59.30198 | 25522 ft | 381 kts | 270° |
| 2026-05-04 20:10 | -34.58285 | -59.33415 | 26004 ft | 383 kts | 270° |
| 2026-05-04 20:10 | -34.58147 | -59.36608 | 26485 ft | 384 kts | 270° |
| 2026-05-04 20:10 | -34.58007 | -59.39841 | 26978 ft | 384 kts | 270° |
| 2026-05-04 20:11 | -34.57912 | -59.42030 | 27316 ft | 385 kts | 270° |
| 2026-05-04 20:11 | -34.57723 | -59.46324 | 27988 ft | 385 kts | 270° |
| 2026-05-04 20:11 | -34.57581 | -59.49559 | 28474 ft | 384 kts | 270° |
| 2026-05-04 20:11 | -34.57436 | -59.52802 | 28988 ft | 384 kts | 270° |
| 2026-05-04 20:12 | -34.57292 | -59.56029 | 29531 ft | 383 kts | 270° |
| 2026-05-04 20:12 | -34.57194 | -59.58207 | 29911 ft | 382 kts | 270° |
| 2026-05-04 20:12 | -34.57069 | -59.62461 | 30527 ft | 379 kts | 269° |
| 2026-05-04 20:12 | -34.57036 | -59.64577 | 30838 ft | 378 kts | 269° |
| 2026-05-04 20:13 | -34.56979 | -59.67794 | 31318 ft | 376 kts | 269° |
| 2026-05-04 20:13 | -34.56919 | -59.70951 | 31770 ft | 374 kts | 269° |
| 2026-05-04 20:13 | -34.56863 | -59.74095 | 31888 ft | 381 kts | 269° |
| 2026-05-04 20:14 | -34.56745 | -59.80690 | 31901 ft | 400 kts | 269° |
| 2026-05-04 20:14 | -34.56612 | -59.87477 | 31904 ft | 403 kts | 269° |
| 2026-05-04 20:15 | -34.56481 | -59.94277 | 31903 ft | 403 kts | 269° |
| 2026-05-04 20:15 | -34.56343 | -60.01081 | 31899 ft | 403 kts | 269° |
| 2026-05-04 20:16 | -34.56202 | -60.07886 | 31893 ft | 403 kts | 269° |
| 2026-05-04 20:16 | -34.56058 | -60.14690 | 31897 ft | 403 kts | 269° |
| 2026-05-04 20:17 | -34.55909 | -60.21509 | 31892 ft | 404 kts | 269° |
| 2026-05-04 20:17 | -34.55758 | -60.28287 | 31882 ft | 408 kts | 269° |
| 2026-05-04 20:18 | -34.55600 | -60.35141 | 31883 ft | 406 kts | 269° |
| 2026-05-04 20:18 | -34.55440 | -60.41985 | 31880 ft | 406 kts | 269° |
| 2026-05-04 20:19 | -34.55276 | -60.48831 | 31883 ft | 406 kts | 270° |
| 2026-05-04 20:19 | -34.55107 | -60.55682 | 31878 ft | 406 kts | 270° |
| 2026-05-04 20:20 | -34.54936 | -60.62488 | 31881 ft | 406 kts | 270° |
| 2026-05-04 20:20 | -34.54760 | -60.69342 | 31876 ft | 406 kts | 270° |
| 2026-05-04 20:21 | -34.54580 | -60.76208 | 31881 ft | 406 kts | 270° |
| 2026-05-04 20:21 | -34.54303 | -60.86461 | 31877 ft | 405 kts | 270° |
| 2026-05-04 20:22 | -34.53918 | -60.93229 | 31896 ft | 409 kts | 281° |
| 2026-05-04 20:22 | -34.51740 | -60.99682 | 31869 ft | 416 kts | 291° |
| 2026-05-04 20:23 | -34.49300 | -61.06033 | 31874 ft | 414 kts | 290° |
| 2026-05-04 20:23 | -34.46905 | -61.12377 | 31870 ft | 414 kts | 290° |
| 2026-05-04 20:24 | -34.44484 | -61.18694 | 31875 ft | 414 kts | 290° |
| 2026-05-04 20:24 | -34.42070 | -61.25030 | 31876 ft | 414 kts | 290° |
| 2026-05-04 20:25 | -34.39644 | -61.31358 | 31876 ft | 414 kts | 290° |
| 2026-05-04 20:25 | -34.37240 | -61.37630 | 31857 ft | 412 kts | 290° |
| 2026-05-04 20:26 | -34.34818 | -61.43932 | 31861 ft | 412 kts | 290° |
| 2026-05-04 20:26 | -34.32395 | -61.50225 | 31861 ft | 412 kts | 290° |
| 2026-05-04 20:27 | -34.29967 | -61.56520 | 31861 ft | 412 kts | 290° |
| 2026-05-04 20:27 | -34.27549 | -61.62776 | 31855 ft | 412 kts | 290° |
| 2026-05-04 20:28 | -34.25115 | -61.69061 | 31855 ft | 413 kts | 290° |
| 2026-05-04 20:28 | -34.22678 | -61.75343 | 31856 ft | 413 kts | 290° |
| 2026-05-04 20:29 | -34.20238 | -61.81621 | 31859 ft | 412 kts | 290° |
| 2026-05-04 20:29 | -34.17795 | -61.87894 | 31854 ft | 413 kts | 291° |
| 2026-05-04 20:30 | -34.15349 | -61.94164 | 31864 ft | 412 kts | 291° |
| 2026-05-04 20:30 | -34.12908 | -62.00415 | 31856 ft | 411 kts | 291° |
| 2026-05-04 20:31 | -34.10475 | -62.06631 | 31839 ft | 411 kts | 291° |
| 2026-05-04 20:31 | -34.08026 | -62.12880 | 31845 ft | 412 kts | 291° |
| 2026-05-04 20:32 | -34.05567 | -62.19139 | 31847 ft | 412 kts | 291° |
| 2026-05-04 20:32 | -34.03110 | -62.25384 | 31861 ft | 410 kts | 291° |
| 2026-05-04 20:33 | -34.00676 | -62.31558 | 31855 ft | 409 kts | 291° |
| 2026-05-04 20:33 | -33.98231 | -62.37745 | 31849 ft | 409 kts | 291° |
| 2026-05-04 20:34 | -33.95775 | -62.43948 | 31846 ft | 409 kts | 291° |
| 2026-05-04 20:34 | -33.93312 | -62.50157 | 31843 ft | 410 kts | 291° |
| 2026-05-04 20:35 | -33.90851 | -62.56348 | 31852 ft | 409 kts | 291° |
| 2026-05-04 20:35 | -33.88409 | -62.62484 | 31852 ft | 409 kts | 291° |
| 2026-05-04 20:36 | -33.85947 | -62.68658 | 31850 ft | 409 kts | 292° |
| 2026-05-04 20:36 | -33.83479 | -62.74835 | 31609 ft | 410 kts | 292° |
| 2026-05-04 20:37 | -33.82249 | -62.77909 | 31130 ft | 407 kts | 292° |
| 2026-05-04 20:37 | -33.81022 | -62.80968 | 30544 ft | 403 kts | 292° |
| 2026-05-04 20:37 | -33.79807 | -62.84001 | 29997 ft | 400 kts | 292° |
| 2026-05-04 20:37 | -33.78604 | -62.87001 | 29381 ft | 397 kts | 292° |
| 2026-05-04 20:38 | -33.77405 | -62.89987 | 28759 ft | 394 kts | 292° |
| 2026-05-04 20:38 | -33.76230 | -62.92911 | 28155 ft | 391 kts | 292° |
| 2026-05-04 20:38 | -33.75047 | -62.95852 | 27559 ft | 389 kts | 292° |
| 2026-05-04 20:38 | -33.73876 | -62.98761 | 26975 ft | 386 kts | 292° |
| 2026-05-04 20:39 | -33.72642 | -63.01622 | 26408 ft | 386 kts | 299° |
| 2026-05-04 20:39 | -33.71023 | -63.04195 | 25862 ft | 387 kts | 305° |
| 2026-05-04 20:39 | -33.69290 | -63.06668 | 25300 ft | 385 kts | 306° |
| 2026-05-04 20:39 | -33.67577 | -63.09132 | 24780 ft | 382 kts | 305° |
| 2026-05-04 20:40 | -33.65883 | -63.11591 | 24230 ft | 380 kts | 306° |
| 2026-05-04 20:40 | -33.64202 | -63.14024 | 23712 ft | 378 kts | 306° |
| 2026-05-04 20:40 | -33.62523 | -63.16437 | 23160 ft | 376 kts | 306° |
| 2026-05-04 20:40 | -33.60849 | -63.18843 | 22560 ft | 374 kts | 306° |
| 2026-05-04 20:41 | -33.59193 | -63.21229 | 21963 ft | 371 kts | 306° |
| 2026-05-04 20:41 | -33.57546 | -63.23599 | 21386 ft | 369 kts | 306° |
| 2026-05-04 20:41 | -33.55924 | -63.25931 | 20822 ft | 367 kts | 306° |
| 2026-05-04 20:41 | -33.54289 | -63.28280 | 20266 ft | 365 kts | 305° |
| 2026-05-04 20:42 | -33.52662 | -63.30616 | 19717 ft | 363 kts | 305° |
| 2026-05-04 20:42 | -33.51047 | -63.32932 | 19175 ft | 362 kts | 305° |
| 2026-05-04 20:42 | -33.49434 | -63.35245 | 18656 ft | 360 kts | 305° |
| 2026-05-04 20:42 | -33.47827 | -63.37548 | 18129 ft | 359 kts | 305° |
| 2026-05-04 20:43 | -33.46232 | -63.39832 | 17519 ft | 357 kts | 305° |
| 2026-05-04 20:43 | -33.44647 | -63.42101 | 16956 ft | 354 kts | 305° |
| 2026-05-04 20:43 | -33.43068 | -63.44359 | 16383 ft | 351 kts | 305° |
| 2026-05-04 20:43 | -33.41525 | -63.46564 | 15832 ft | 348 kts | 306° |
| 2026-05-04 20:44 | -33.39976 | -63.48778 | 15319 ft | 344 kts | 306° |
| 2026-05-04 20:44 | -33.38445 | -63.50964 | 14818 ft | 342 kts | 306° |
| 2026-05-04 20:44 | -33.36916 | -63.53145 | 14323 ft | 339 kts | 306° |
| 2026-05-04 20:44 | -33.35409 | -63.55293 | 13845 ft | 336 kts | 306° |
| 2026-05-04 20:45 | -33.33930 | -63.57401 | 13333 ft | 333 kts | 307° |
| 2026-05-04 20:45 | -33.32446 | -63.59516 | 12801 ft | 331 kts | 307° |
| 2026-05-04 20:45 | -33.30966 | -63.61623 | 12279 ft | 329 kts | 307° |
| 2026-05-04 20:45 | -33.29497 | -63.63711 | 11753 ft | 328 kts | 308° |
| 2026-05-04 20:46 | -33.28031 | -63.65795 | 11245 ft | 326 kts | 308° |
| 2026-05-04 20:46 | -33.26578 | -63.67862 | 10761 ft | 324 kts | 308° |
| 2026-05-04 20:46 | -33.25130 | -63.69918 | 10261 ft | 323 kts | 309° |
| 2026-05-04 20:46 | -33.23684 | -63.71970 | 9790 ft | 321 kts | 309° |
| 2026-05-04 20:47 | -33.22249 | -63.74006 | 9261 ft | 320 kts | 309° |
| 2026-05-04 20:47 | -33.20813 | -63.76042 | 8747 ft | 319 kts | 310° |
| 2026-05-04 20:47 | -33.19385 | -63.78065 | 8225 ft | 319 kts | 310° |
| 2026-05-04 20:47 | -33.17958 | -63.80085 | 7727 ft | 318 kts | 311° |
| 2026-05-04 20:48 | -33.16531 | -63.82106 | 7220 ft | 317 kts | 311° |
| 2026-05-04 20:48 | -33.15123 | -63.84097 | 6749 ft | 317 kts | 311° |
| 2026-05-04 20:48 | -33.13686 | -63.86130 | 6252 ft | 316 kts | 312° |
| 2026-05-04 20:48 | -33.12284 | -63.88109 | 5868 ft | 315 kts | 312° |
| 2026-05-04 20:49 | -33.10857 | -63.90122 | 5840 ft | 320 kts | 311° |
| 2026-05-04 20:49 | -33.09422 | -63.92149 | 5842 ft | 320 kts | 311° |
| 2026-05-04 20:49 | -33.08372 | -63.94479 | 5845 ft | 324 kts | 285° |
| 2026-05-04 20:49 | -33.08327 | -63.97165 | 5842 ft | 327 kts | 266° |
| 2026-05-04 20:50 | -33.08462 | -63.99874 | 5811 ft | 327 kts | 270° |
| 2026-05-04 20:50 | -33.08489 | -64.02578 | 5655 ft | 326 kts | 271° |
| 2026-05-04 20:50 | -33.08546 | -64.05271 | 5540 ft | 323 kts | 269° |
| 2026-05-04 20:50 | -33.08648 | -64.07927 | 5447 ft | 318 kts | 269° |
| 2026-05-04 20:51 | -33.08745 | -64.10525 | 5341 ft | 310 kts | 270° |
| 2026-05-04 20:51 | -33.08820 | -64.13083 | 5241 ft | 308 kts | 270° |
| 2026-05-04 20:51 | -33.08894 | -64.15636 | 5146 ft | 307 kts | 270° |
| 2026-05-04 20:51 | -33.08971 | -64.18144 | 5046 ft | 306 kts | 269° |
| 2026-05-04 20:52 | -33.09051 | -64.20683 | 4949 ft | 305 kts | 269° |
| 2026-05-04 20:52 | -33.09128 | -64.23202 | 4848 ft | 304 kts | 269° |
| 2026-05-04 20:52 | -33.09429 | -64.25681 | 4839 ft | 306 kts | 250° |
| 2026-05-04 20:52 | -33.10696 | -64.27719 | 4842 ft | 311 kts | 220° |
| 2026-05-04 20:53 | -33.12610 | -64.28930 | 4828 ft | 313 kts | 202° |
| 2026-05-04 20:53 | -33.14660 | -64.29798 | 4585 ft | 312 kts | 201° |
| 2026-05-04 20:53 | -33.16676 | -64.30762 | 4338 ft | 309 kts | 206° |
| 2026-05-04 20:53 | -33.18589 | -64.31926 | 4095 ft | 308 kts | 210° |
| 2026-05-04 20:54 | -33.20484 | -64.33124 | 3846 ft | 308 kts | 207° |
| 2026-05-04 20:54 | -33.22399 | -64.34247 | 3602 ft | 306 kts | 206° |
| 2026-05-04 20:54 | -33.24294 | -64.35328 | 3500 ft | 307 kts | 205° |
| 2026-05-04 20:54 | -33.26150 | -64.36563 | 3505 ft | 306 kts | 221° |
| 2026-05-04 20:55 | -33.27275 | -64.38513 | 3490 ft | 267 kts | 256° |
| 2026-05-04 20:55 | -33.27241 | -64.40527 | 3521 ft | 227 kts | 294° |
| 2026-05-04 20:55 | -33.26304 | -64.41773 | 3503 ft | 186 kts | 339° |
| 2026-05-04 20:55 | -33.25146 | -64.41734 | 3505 ft | 168 kts | 26° |
| 2026-05-04 20:56 | -33.24074 | -64.41148 | 3513 ft | 171 kts | 21° |
| 2026-05-04 20:56 | -33.22883 | -64.40804 | 3513 ft | 184 kts | 8° |
| 2026-05-04 20:56 | -33.21586 | -64.40716 | 3505 ft | 182 kts | 9° |
| 2026-05-04 20:56 | -33.20540 | -64.40110 | 3482 ft | 162 kts | 41° |
| 2026-05-04 20:57 | -33.19741 | -64.39176 | 3426 ft | 163 kts | 44° |
| 2026-05-04 20:57 | -33.18935 | -64.38229 | 3288 ft | 161 kts | 44° |
| 2026-05-04 20:57 | -33.18148 | -64.37310 | 3163 ft | 157 kts | 44° |
| 2026-05-04 20:57 | -33.17357 | -64.36391 | 3033 ft | 159 kts | 45° |
| 2026-05-04 20:58 | -33.16577 | -64.35485 | 2903 ft | 157 kts | 44° |
| 2026-05-04 20:58 | -33.15788 | -64.34567 | 2785 ft | 157 kts | 44° |
| 2026-05-04 20:58 | -33.14996 | -64.33654 | 2659 ft | 161 kts | 44° |
| 2026-05-04 20:58 | -33.14207 | -64.32731 | 2427 ft | 156 kts | 45° |
| 2026-05-04 20:59 | -33.13418 | -64.31817 | 2257 ft | 160 kts | 43° |
| 2026-05-04 20:59 | -33.12639 | -64.30906 | 2074 ft | 156 kts | 46° |
| 2026-05-04 20:59 | -33.11855 | -64.29995 | 1877 ft | 158 kts | 45° |
| 2026-05-04 20:59 | -33.11073 | -64.29090 | 1698 ft | 157 kts | 45° |
| 2026-05-04 21:00 | -33.10291 | -64.28181 | 1498 ft | 155 kts | 44° |
| 2026-05-04 21:00 | -33.09572 | -64.27337 | 1381 ft | 120 kts | 44° |
| 2026-05-04 21:00 | -33.09253 | -64.26974 | 1386 ft | 74 kts | 43° |
| 2026-05-04 21:00 | -33.08989 | -64.26694 | 1399 ft | 28 kts | 36° |
| 2026-05-04 21:01 | -33.08972 | -64.26631 | 1400 ft | 4 kts | 156° |
| 2026-05-04 21:01 | -33.09000 | -64.26658 | 1398 ft | 10 kts | 227° |
| 2026-05-04 21:01 | -33.09112 | -64.26803 | 1387 ft | 25 kts | 227° |
| 2026-05-04 21:01 | -33.09201 | -64.26917 | 1384 ft | 32 kts | 227° |
| 2026-05-04 21:02 | -33.09382 | -64.27129 | 1384 ft | 40 kts | 223° |
| 2026-05-04 21:02 | -33.09507 | -64.27402 | 1383 ft | 31 kts | 269° |
| 2026-05-04 21:02 | -33.09511 | -64.27564 | 1381 ft | 18 kts | 269° |
| 2026-05-04 21:02 | -33.09548 | -64.27640 | 1378 ft | 11 kts | 204° |
| 2026-05-04 21:03 | -33.09578 | -64.27715 | 1379 ft | 7 kts | 269° |
| 2026-05-04 21:03 | -33.09578 | -64.27719 | 1379 ft | 0 kts | 269° |